createdAt,value
2022-10-30T00:01:28.070Z,100.00
2022-10-30T00:03:56.610Z,100.00
2022-10-30T00:06:25.206Z,100.00
2022-10-30T00:08:53.866Z,100.00
2022-10-30T00:11:23.128Z,100.00
2022-10-30T00:13:53.432Z,100.00
2022-10-30T00:16:22.036Z,100.00
2022-10-30T00:18:51.293Z,100.00
2022-10-30T00:21:20.874Z,100.00
2022-10-30T00:23:53.949Z,100.00
2022-10-30T00:26:25.711Z,100.00
2022-10-30T00:28:57.632Z,100.00
2022-10-30T00:31:26.238Z,100.00
2022-10-30T00:33:57.158Z,100.00
2022-10-30T00:36:26.234Z,100.00
2022-10-30T00:38:55.085Z,100.00
2022-10-30T00:41:26.065Z,100.00
2022-10-30T00:43:56.358Z,100.00
2022-10-30T00:46:32.572Z,100.00
2022-10-30T00:49:07.245Z,100.00
2022-10-30T00:51:38.642Z,100.00
2022-10-30T00:54:11.206Z,100.00
2022-10-30T00:56:40.508Z,100.00
2022-10-30T00:59:16.647Z,100.00
2022-10-30T01:01:48.277Z,100.00
2022-10-30T01:04:19.499Z,100.00
2022-10-30T01:06:53.375Z,100.00
2022-10-30T01:09:23.066Z,100.00
2022-10-30T01:11:51.616Z,100.00
2022-10-30T01:14:23.264Z,100.00
2022-10-30T01:17:32.129Z,100.00
2022-10-30T01:20:20.889Z,100.00
2022-10-30T01:23:07.290Z,100.00
2022-10-30T01:25:51.127Z,100.00
2022-10-30T01:28:39.406Z,100.00
2022-10-30T01:31:32.945Z,100.00
2022-10-30T01:34:18.528Z,100.00
2022-10-30T01:36:57.127Z,100.00
2022-10-30T01:39:30.987Z,100.00
2022-10-30T01:42:00.198Z,100.00
2022-10-30T01:44:34.988Z,100.00
2022-10-30T01:47:32.685Z,100.00
2022-10-30T01:50:18.572Z,100.00
2022-10-30T01:52:59.904Z,100.00
2022-10-30T01:55:40.355Z,100.00
2022-10-30T01:58:20.363Z,100.00
2022-10-30T02:00:56.012Z,100.00
2022-10-30T02:03:27.541Z,100.00
2022-10-30T02:05:56.811Z,100.00
2022-10-30T02:08:26.210Z,100.00
2022-10-30T02:10:56.538Z,100.00
2022-10-30T02:13:25.207Z,100.00
2022-10-30T02:15:54.538Z,100.00
2022-10-30T02:18:24.775Z,100.00
2022-10-30T02:20:55.473Z,100.00
2022-10-30T02:23:24.498Z,100.00
2022-10-30T02:25:53.439Z,100.00
2022-10-30T02:28:23.575Z,100.00
2022-10-30T02:30:52.662Z,100.00
2022-10-30T02:33:21.627Z,100.00
2022-10-30T02:35:50.706Z,100.00
2022-10-30T02:38:21.032Z,100.00
2022-10-30T02:40:50.511Z,100.00
2022-10-30T02:43:20.176Z,100.00
2022-10-30T02:45:53.567Z,100.00
2022-10-30T02:48:23.342Z,100.00
2022-10-30T02:50:53.077Z,100.00
2022-10-30T02:53:24.035Z,100.00
2022-10-30T02:55:53.172Z,100.00
2022-10-30T02:58:23.390Z,100.00
2022-10-30T03:00:51.995Z,100.00
2022-10-30T03:03:23.950Z,100.00
2022-10-30T03:05:52.842Z,100.00
2022-10-30T03:08:23.809Z,100.00
2022-10-30T03:10:52.768Z,100.00
2022-10-30T03:13:21.302Z,100.00
2022-10-30T03:15:50.407Z,100.00
2022-10-30T03:18:19.719Z,100.00
2022-10-30T03:20:48.835Z,100.00
2022-10-30T03:23:18.343Z,100.00
2022-10-30T03:25:49.315Z,100.00
2022-10-30T03:28:18.311Z,100.00
2022-10-30T03:30:47.828Z,100.00
2022-10-30T03:33:17.724Z,100.00
2022-10-30T03:35:47.672Z,100.00
2022-10-30T03:38:16.706Z,100.00
2022-10-30T03:40:45.093Z,100.00
2022-10-30T03:43:15.611Z,100.00
2022-10-30T03:45:49.565Z,100.00
2022-10-30T03:48:20.698Z,100.00
2022-10-30T03:50:49.993Z,100.00
2022-10-30T03:53:18.687Z,100.00
2022-10-30T03:55:47.206Z,100.00
2022-10-30T03:58:17.658Z,100.00
2022-10-30T04:00:47.292Z,100.00
2022-10-30T04:03:17.029Z,100.00
2022-10-30T04:05:46.633Z,100.00
2022-10-30T04:08:16.236Z,100.00
2022-10-30T04:10:45.176Z,100.00
2022-10-30T04:13:17.981Z,100.00
2022-10-30T04:15:54.205Z,100.00
2022-10-30T04:18:26.730Z,100.00
2022-10-30T04:20:55.373Z,100.00
2022-10-30T04:23:24.026Z,100.00
2022-10-30T04:25:53.713Z,100.00
2022-10-30T04:28:24.432Z,100.00
2022-10-30T04:30:53.031Z,100.00
2022-10-30T04:33:22.086Z,100.00
2022-10-30T04:35:50.541Z,100.00
2022-10-30T04:38:19.682Z,100.00
2022-10-30T04:40:49.388Z,100.00
2022-10-30T04:43:20.255Z,100.00
2022-10-30T04:45:50.655Z,100.00
2022-10-30T04:48:20.282Z,100.00
2022-10-30T04:50:49.345Z,100.00
2022-10-30T04:53:19.727Z,100.00
2022-10-30T04:55:48.328Z,100.00
2022-10-30T04:58:17.545Z,100.00
2022-10-30T05:00:46.306Z,100.00
2022-10-30T05:03:23.294Z,100.00
2022-10-30T05:06:05.734Z,100.00
2022-10-30T05:08:34.898Z,100.00
2022-10-30T05:11:09.276Z,100.00
2022-10-30T05:13:39.207Z,100.00
2022-10-30T05:16:08.815Z,100.00
2022-10-30T05:18:40.743Z,100.00
2022-10-30T05:21:09.761Z,100.00
2022-10-30T05:23:38.615Z,100.00
2022-10-30T05:26:09.069Z,100.00
2022-10-30T05:28:39.878Z,100.00
2022-10-30T05:31:09.807Z,100.00
2022-10-30T05:33:43.139Z,100.00
2022-10-30T05:36:11.848Z,100.00
2022-10-30T05:38:41.000Z,100.00
2022-10-30T05:41:11.052Z,100.00
2022-10-30T05:43:40.443Z,100.00
2022-10-30T05:46:09.463Z,100.00
2022-10-30T05:48:39.858Z,100.00
2022-10-30T05:51:08.792Z,100.00
2022-10-30T05:53:39.780Z,100.00
2022-10-30T05:56:12.325Z,100.00
2022-10-30T05:58:42.347Z,100.00
2022-10-30T06:01:15.390Z,100.00
2022-10-30T06:03:46.263Z,100.00
2022-10-30T06:06:15.503Z,100.00
2022-10-30T06:08:51.624Z,100.00
2022-10-30T06:11:21.962Z,100.00
2022-10-30T06:13:51.830Z,100.00
2022-10-30T06:16:20.453Z,100.00
2022-10-30T06:18:50.628Z,100.00
2022-10-30T06:21:20.837Z,100.00
2022-10-30T06:23:50.375Z,100.00
2022-10-30T06:26:18.933Z,100.00
2022-10-30T06:28:47.373Z,100.00
2022-10-30T06:33:53.713Z,100.00
2022-10-30T06:36:22.418Z,100.00
2022-10-30T06:38:51.893Z,100.00
2022-10-30T06:41:23.340Z,100.00
2022-10-30T06:43:55.171Z,100.00
2022-10-30T06:46:30.513Z,100.00
2022-10-30T06:49:04.262Z,100.00
2022-10-30T06:51:35.237Z,100.00
2022-10-30T06:54:04.260Z,100.00
2022-10-30T06:56:33.203Z,100.00
2022-10-30T06:59:01.603Z,100.00
2022-10-30T07:01:31.669Z,100.00
2022-10-30T07:04:00.175Z,100.00
2022-10-30T07:06:30.027Z,100.00
2022-10-30T07:08:59.120Z,100.00
2022-10-30T07:11:28.108Z,100.00
2022-10-30T07:13:56.548Z,100.00
2022-10-30T07:16:28.300Z,100.00
2022-10-30T07:18:59.375Z,100.00
2022-10-30T07:21:32.002Z,100.00
2022-10-30T07:24:00.660Z,100.00
2022-10-30T07:26:29.112Z,100.00
2022-10-30T07:28:58.141Z,100.00
2022-10-30T07:31:41.522Z,100.00
2022-10-30T07:34:11.928Z,100.00
2022-10-30T07:36:41.807Z,100.00
2022-10-30T07:39:10.405Z,100.00
2022-10-30T07:41:39.559Z,100.00
2022-10-30T07:44:08.354Z,100.00
2022-10-30T07:46:36.858Z,100.00
2022-10-30T07:49:05.280Z,100.00
2022-10-30T07:51:33.795Z,100.00
2022-10-30T07:54:03.633Z,100.00
2022-10-30T07:56:32.076Z,100.00
2022-10-30T07:59:00.495Z,100.00
2022-10-30T08:01:29.399Z,100.00
2022-10-30T08:03:57.921Z,100.00
2022-10-30T08:06:27.583Z,100.00
2022-10-30T08:08:56.909Z,100.00
2022-10-30T08:11:26.778Z,100.00
2022-10-30T08:13:55.212Z,100.00
2022-10-30T08:16:23.756Z,100.00
2022-10-30T08:18:52.477Z,100.00
2022-10-30T08:21:21.156Z,100.00
2022-10-30T08:23:49.720Z,100.00
2022-10-30T08:26:18.228Z,100.00
2022-10-30T08:28:48.160Z,100.00
2022-10-30T08:31:16.674Z,100.00
2022-10-30T08:33:45.115Z,100.00
2022-10-30T08:36:13.590Z,100.00
2022-10-30T08:38:42.015Z,100.00
2022-10-30T08:41:10.483Z,100.00
2022-10-30T08:43:39.999Z,100.00
2022-10-30T08:46:11.713Z,100.00
2022-10-30T08:48:41.114Z,100.00
2022-10-30T08:51:09.567Z,100.00
2022-10-30T08:53:38.029Z,100.00
2022-10-30T08:56:07.521Z,100.00
2022-10-30T08:58:36.329Z,100.00
2022-10-30T09:01:05.540Z,100.00
2022-10-30T09:03:36.723Z,100.00
2022-10-30T09:06:05.812Z,100.00
2022-10-30T09:08:34.250Z,100.00
2022-10-30T09:11:03.067Z,100.00
2022-10-30T09:13:33.233Z,100.00
2022-10-30T09:16:03.217Z,100.00
2022-10-30T09:18:32.636Z,100.00
2022-10-30T09:21:04.893Z,100.00
2022-10-30T09:23:33.921Z,100.00
2022-10-30T09:26:02.486Z,100.00
2022-10-30T09:28:30.920Z,100.00
2022-10-30T09:30:59.360Z,100.00
2022-10-30T09:33:28.077Z,100.00
2022-10-30T09:35:57.044Z,100.00
2022-10-30T09:38:26.888Z,100.00
2022-10-30T09:41:26.534Z,100.00
2022-10-30T09:44:15.200Z,100.00
2022-10-30T09:47:01.719Z,100.00
2022-10-30T09:49:56.195Z,100.00
2022-10-30T09:52:33.751Z,100.00
2022-10-30T09:55:29.560Z,100.00
2022-10-30T09:58:14.399Z,100.00
2022-10-30T10:00:52.418Z,100.00
2022-10-30T10:03:42.447Z,100.00
2022-10-30T10:06:19.594Z,100.00
2022-10-30T10:08:55.198Z,100.00
2022-10-30T10:11:32.615Z,100.00
2022-10-30T10:14:10.297Z,100.00
2022-10-30T10:16:43.399Z,100.00
2022-10-30T10:19:22.250Z,100.00
2022-10-30T10:21:58.323Z,100.00
2022-10-30T10:24:31.903Z,100.00
2022-10-30T10:27:13.088Z,100.00
2022-10-30T10:29:57.513Z,100.00
2022-10-30T10:33:15.437Z,100.00
2022-10-30T10:36:18.386Z,100.00
2022-10-30T10:39:06.205Z,100.00
2022-10-30T10:42:07.266Z,100.00
2022-10-30T10:44:51.259Z,100.00
2022-10-30T10:47:56.784Z,100.00
2022-10-30T10:50:32.823Z,100.00
2022-10-30T10:53:11.042Z,100.00
2022-10-30T10:55:42.576Z,100.00
2022-10-30T10:58:26.812Z,100.00
2022-10-30T11:00:58.681Z,100.00
2022-10-30T11:03:40.150Z,100.00
2022-10-30T11:06:22.547Z,100.00
2022-10-30T11:08:54.982Z,100.00
2022-10-30T11:11:23.521Z,100.00
2022-10-30T11:13:53.558Z,100.00
2022-10-30T11:16:32.847Z,100.00
2022-10-30T11:19:05.678Z,100.00
2022-10-30T11:21:40.702Z,100.00
2022-10-30T11:24:30.607Z,100.00
2022-10-30T11:27:18.211Z,100.00
2022-10-30T11:29:55.825Z,100.00
2022-10-30T11:32:29.109Z,100.00
2022-10-30T11:35:13.329Z,100.00
2022-10-30T11:37:44.629Z,100.00
2022-10-30T11:40:21.417Z,100.00
2022-10-30T11:43:02.602Z,100.00
2022-10-30T11:45:37.548Z,100.00
2022-10-30T11:48:19.934Z,100.00
2022-10-30T11:50:51.645Z,100.00
2022-10-30T11:53:31.931Z,100.00
2022-10-30T11:56:01.183Z,100.00
2022-10-30T11:58:34.831Z,100.00
2022-10-30T12:01:09.863Z,100.00
2022-10-30T12:03:40.817Z,100.00
2022-10-30T12:06:17.247Z,100.00
2022-10-30T12:09:02.587Z,100.00
2022-10-30T12:11:36.195Z,100.00
2022-10-30T12:14:06.425Z,100.00
2022-10-30T12:16:36.413Z,100.00
2022-10-30T12:19:09.639Z,100.00
2022-10-30T12:21:44.625Z,100.00
2022-10-30T12:24:22.287Z,100.00
2022-10-30T12:26:54.296Z,100.00
2022-10-30T12:29:47.937Z,100.00
2022-10-30T12:32:30.252Z,100.00
2022-10-30T12:35:07.953Z,100.00
2022-10-30T12:37:44.713Z,100.00
2022-10-30T12:40:20.145Z,100.00
2022-10-30T12:42:58.761Z,100.00
2022-10-30T12:45:37.057Z,100.00
2022-10-30T12:48:19.118Z,100.00
2022-10-30T12:51:06.970Z,97.34
2022-10-30T12:53:47.855Z,97.16
2022-10-30T12:56:27.327Z,96.94
2022-10-30T12:59:13.493Z,99.28
2022-10-30T13:01:53.845Z,98.80
2022-10-30T13:04:30.543Z,100.00
2022-10-30T13:07:07.924Z,100.00
2022-10-30T13:09:45.511Z,100.00
2022-10-30T13:12:21.719Z,100.00
2022-10-30T13:14:58.195Z,100.00
2022-10-30T13:17:28.621Z,97.52
2022-10-30T13:20:02.753Z,97.64
2022-10-30T13:22:42.008Z,97.16
2022-10-30T13:25:21.312Z,100.00
2022-10-30T13:27:59.088Z,100.00
2022-10-30T13:30:36.256Z,100.00
2022-10-30T13:33:16.357Z,100.00
2022-10-30T13:36:00.475Z,100.00
2022-10-30T13:38:46.065Z,100.00
2022-10-30T13:41:29.721Z,100.00
2022-10-30T13:44:16.386Z,100.00
2022-10-30T13:47:13.592Z,100.00
2022-10-30T13:50:07.594Z,100.00
2022-10-30T13:52:42.856Z,100.00
2022-10-30T13:55:24.094Z,100.00
2022-10-30T13:58:04.615Z,100.00
2022-10-30T14:00:56.257Z,100.00
2022-10-30T14:03:48.105Z,100.00
2022-10-30T14:06:33.724Z,100.00
2022-10-30T14:09:16.001Z,100.00
2022-10-30T14:11:44.626Z,100.00
2022-10-30T14:14:31.100Z,100.00
2022-10-30T14:17:14.800Z,100.00
2022-10-30T14:20:31.253Z,100.00
2022-10-30T14:23:15.498Z,100.00
2022-10-30T14:25:45.607Z,100.00
2022-10-30T14:28:22.128Z,100.00
2022-10-30T14:31:03.846Z,100.00
2022-10-30T14:33:43.567Z,100.00
2022-10-30T14:36:20.075Z,100.00
2022-10-30T14:38:57.553Z,100.00
2022-10-30T14:41:58.387Z,100.00
2022-10-30T14:45:10.020Z,100.00
2022-10-30T14:47:57.199Z,100.00
2022-10-30T14:50:58.096Z,100.00
2022-10-30T14:53:55.420Z,100.00
2022-10-30T14:56:37.734Z,100.00
2022-10-30T14:59:33.523Z,100.00
2022-10-30T15:02:38.944Z,100.00
2022-10-30T15:05:40.830Z,100.00
2022-10-30T15:08:34.458Z,100.00
2022-10-30T15:11:33.811Z,100.00
2022-10-30T15:14:21.238Z,100.00
2022-10-30T15:16:55.436Z,100.00
2022-10-30T15:19:26.235Z,100.00
2022-10-30T15:21:57.855Z,100.00
2022-10-30T15:24:32.621Z,100.00
2022-10-30T15:27:05.152Z,100.00
2022-10-30T15:29:37.889Z,100.00
2022-10-30T15:32:18.003Z,100.00
2022-10-30T15:34:57.257Z,100.00
2022-10-30T15:37:25.829Z,100.00
2022-10-30T15:40:17.863Z,100.00
2022-10-30T15:42:48.931Z,100.00
2022-10-30T15:45:23.004Z,100.00
2022-10-30T15:48:02.148Z,100.00
2022-10-30T15:50:33.417Z,100.00
2022-10-30T15:53:03.240Z,100.00
2022-10-30T15:55:34.303Z,100.00
2022-10-30T15:58:06.054Z,100.00
2022-10-30T16:00:39.744Z,100.00
2022-10-30T16:03:18.597Z,100.00
2022-10-30T16:05:47.508Z,100.00
2022-10-30T16:08:21.696Z,100.00
2022-10-30T16:10:53.750Z,100.00
2022-10-30T16:13:31.940Z,100.00
2022-10-30T16:16:05.290Z,100.00
2022-10-30T16:18:37.478Z,100.00
2022-10-30T16:21:11.051Z,100.00
2022-10-30T16:23:42.616Z,100.00
2022-10-30T16:26:33.317Z,100.00
2022-10-30T16:29:26.184Z,100.00
2022-10-30T16:31:57.763Z,100.00
2022-10-30T16:34:34.893Z,100.00
2022-10-30T16:37:06.836Z,100.00
2022-10-30T16:39:38.375Z,100.00
2022-10-30T16:42:07.300Z,100.00
2022-10-30T16:44:37.241Z,100.00
2022-10-30T16:47:22.279Z,100.00
2022-10-30T16:49:56.500Z,100.00
2022-10-30T16:52:29.292Z,100.00
2022-10-30T16:55:03.310Z,100.00
2022-10-30T16:57:34.717Z,100.00
2022-10-30T17:00:05.571Z,100.00
2022-10-30T17:02:44.678Z,100.00
2022-10-30T17:05:24.533Z,100.00
2022-10-30T17:07:58.342Z,100.00
2022-10-30T17:10:36.743Z,100.00
2022-10-30T17:13:33.702Z,100.00
2022-10-30T17:16:24.848Z,100.00
2022-10-30T17:18:58.219Z,100.00
2022-10-30T17:21:31.738Z,100.00
2022-10-30T17:24:02.190Z,100.00
2022-10-30T17:26:39.926Z,100.00
2022-10-30T17:29:30.535Z,100.00
2022-10-30T17:32:01.285Z,100.00
2022-10-30T17:34:31.913Z,100.00
2022-10-30T17:37:00.397Z,100.00
2022-10-30T17:39:28.880Z,100.00
2022-10-30T17:41:59.294Z,100.00
2022-10-30T17:44:31.661Z,100.00
2022-10-30T17:47:01.493Z,100.00
2022-10-30T17:49:33.694Z,100.00
2022-10-30T17:52:02.400Z,100.00
2022-10-30T17:54:30.842Z,100.00
2022-10-30T17:56:59.915Z,100.00
2022-10-30T17:59:28.508Z,100.00
2022-10-30T18:01:57.238Z,100.00
2022-10-30T18:04:25.740Z,100.00
2022-10-30T18:06:55.821Z,100.00
2022-10-30T18:09:24.526Z,100.00
2022-10-30T18:11:53.148Z,100.00
2022-10-30T18:14:21.544Z,100.00
2022-10-30T18:16:53.014Z,100.00
2022-10-30T18:19:24.004Z,100.00
2022-10-30T18:21:54.190Z,100.00
2022-10-30T18:24:24.234Z,100.00
2022-10-30T18:26:53.926Z,100.00
2022-10-30T18:29:22.372Z,100.00
2022-10-30T18:31:50.972Z,100.00
2022-10-30T18:34:21.614Z,100.00
2022-10-30T18:36:51.098Z,100.00
2022-10-30T18:39:19.477Z,100.00
2022-10-30T18:41:50.238Z,100.00
2022-10-30T18:44:20.047Z,100.00
2022-10-30T18:46:48.744Z,100.00
2022-10-30T18:49:18.865Z,100.00
2022-10-30T18:51:47.384Z,100.00
2022-10-30T18:54:17.075Z,100.00
2022-10-30T18:56:45.775Z,100.00
2022-10-30T18:59:15.722Z,100.00
2022-10-30T19:01:44.275Z,100.00
2022-10-30T19:04:16.763Z,100.00
2022-10-30T19:06:48.357Z,100.00
2022-10-30T19:09:16.901Z,100.00
2022-10-30T19:11:45.797Z,100.00
2022-10-30T19:14:16.650Z,100.00
2022-10-30T19:16:45.287Z,100.00
2022-10-30T19:19:15.143Z,100.00
2022-10-30T19:21:45.009Z,100.00
2022-10-30T19:24:17.981Z,100.00
2022-10-30T19:26:47.257Z,100.00
2022-10-30T19:29:17.333Z,100.00
2022-10-30T19:31:45.803Z,100.00
2022-10-30T19:34:14.289Z,100.00
2022-10-30T19:36:44.074Z,100.00
2022-10-30T19:39:16.775Z,100.00
2022-10-30T19:41:45.848Z,100.00
2022-10-30T19:44:14.311Z,100.00
2022-10-30T19:46:44.373Z,100.00
2022-10-30T19:49:19.570Z,100.00
2022-10-30T19:51:48.791Z,100.00
2022-10-30T19:54:17.238Z,100.00
2022-10-30T19:56:45.791Z,100.00
2022-10-30T19:59:16.555Z,100.00
2022-10-30T20:01:46.627Z,100.00
2022-10-30T20:04:15.316Z,100.00
2022-10-30T20:06:43.876Z,100.00
2022-10-30T20:09:12.929Z,100.00
2022-10-30T20:11:41.430Z,100.00
2022-10-30T20:14:10.006Z,100.00
2022-10-30T20:16:38.494Z,100.00
2022-10-30T20:19:29.859Z,100.00
2022-10-30T20:21:58.476Z,100.00
2022-10-30T20:24:26.997Z,100.00
2022-10-30T20:26:58.897Z,100.00
2022-10-30T20:29:27.578Z,100.00
2022-10-30T20:31:56.711Z,100.00
2022-10-30T20:34:26.685Z,100.00
2022-10-30T20:36:55.722Z,100.00
2022-10-30T20:39:24.187Z,100.00
2022-10-30T20:41:52.747Z,100.00
2022-10-30T20:44:21.204Z,100.00
2022-10-30T20:46:49.674Z,100.00
2022-10-30T20:49:18.729Z,100.00
2022-10-30T20:51:49.039Z,100.00
2022-10-30T20:54:18.357Z,100.00
2022-10-30T20:56:47.575Z,100.00
2022-10-30T20:59:16.360Z,100.00
2022-10-30T21:01:45.104Z,100.00
2022-10-30T21:04:14.424Z,100.00
2022-10-30T21:06:43.476Z,100.00
2022-10-30T21:09:13.884Z,100.00
2022-10-30T21:11:42.396Z,100.00
2022-10-30T21:14:10.874Z,100.00
2022-10-30T21:16:39.322Z,100.00
2022-10-30T21:19:07.807Z,100.00
2022-10-30T21:21:36.363Z,100.00
2022-10-30T21:24:05.191Z,100.00
2022-10-30T21:26:37.799Z,100.00
2022-10-30T21:29:06.356Z,100.00
2022-10-30T21:31:35.501Z,100.00
2022-10-30T21:34:05.111Z,100.00
2022-10-30T21:36:33.551Z,100.00
2022-10-30T21:39:02.832Z,100.00
2022-10-30T21:41:31.658Z,100.00
2022-10-30T21:44:02.081Z,100.00
2022-10-30T21:46:32.583Z,100.00
2022-10-30T21:49:06.365Z,100.00
2022-10-30T21:51:36.546Z,100.00
2022-10-30T21:54:05.852Z,100.00
2022-10-30T21:56:36.192Z,100.00
2022-10-30T21:59:07.061Z,100.00
2022-10-30T22:01:38.486Z,100.00
2022-10-30T22:04:10.205Z,100.00
2022-10-30T22:06:41.990Z,100.00
2022-10-30T22:09:11.775Z,100.00
2022-10-30T22:11:40.981Z,100.00
2022-10-30T22:14:12.685Z,100.00
2022-10-30T22:16:42.014Z,100.00
2022-10-30T22:19:12.564Z,100.00
2022-10-30T22:21:41.110Z,100.00
2022-10-30T22:24:10.793Z,100.00
2022-10-30T22:26:39.609Z,100.00
2022-10-30T22:29:08.055Z,100.00
2022-10-30T22:31:38.191Z,100.00
2022-10-30T22:34:06.723Z,100.00
2022-10-30T22:36:35.520Z,100.00
2022-10-30T22:39:07.793Z,100.00
2022-10-30T22:41:38.304Z,100.00
2022-10-30T22:44:09.199Z,100.00
2022-10-30T22:46:39.272Z,100.00
2022-10-30T22:49:08.659Z,100.00
2022-10-30T22:51:40.376Z,100.00
2022-10-30T22:54:12.394Z,100.00
2022-10-30T22:56:42.296Z,100.00
2022-10-30T22:59:14.579Z,100.00
2022-10-30T23:01:45.064Z,100.00
2022-10-30T23:04:16.071Z,100.00
2022-10-30T23:06:45.091Z,100.00
2022-10-30T23:09:19.075Z,100.00
2022-10-30T23:11:47.708Z,100.00
2022-10-30T23:14:17.238Z,100.00
2022-10-30T23:16:47.870Z,100.00
2022-10-30T23:19:16.381Z,100.00
2022-10-30T23:21:44.808Z,100.00
2022-10-30T23:24:13.299Z,100.00
2022-10-30T23:26:42.420Z,100.00
2022-10-30T23:29:11.018Z,100.00
2022-10-30T23:31:43.278Z,100.00
2022-10-30T23:34:16.777Z,100.00
2022-10-30T23:36:46.189Z,100.00
2022-10-30T23:39:18.057Z,100.00
2022-10-30T23:41:47.189Z,100.00
2022-10-30T23:44:17.708Z,100.00
2022-10-30T23:46:46.192Z,100.00
2022-10-30T23:49:16.059Z,100.00
2022-10-30T23:51:44.667Z,100.00
2022-10-30T23:54:13.999Z,100.00
2022-10-30T23:56:42.607Z,100.00
2022-10-30T23:59:11.240Z,100.00
